createdAt,value
2019-02-23T00:00:13.451Z,1029.11
2019-02-23T00:01:13.446Z,1029.08
2019-02-23T00:02:13.437Z,1029.08
2019-02-23T00:03:13.432Z,1029.12
2019-02-23T00:04:13.424Z,1029.12
2019-02-23T00:05:13.417Z,1029.04
2019-02-23T00:06:13.410Z,1029.12
2019-02-23T00:07:13.405Z,1029.10
2019-02-23T00:08:13.398Z,1029.13
2019-02-23T00:09:13.390Z,1029.12
2019-02-23T00:10:13.384Z,1029.14
2019-02-23T00:11:13.377Z,1029.08
2019-02-23T00:12:13.372Z,1029.14
2019-02-23T00:13:13.364Z,1029.13
2019-02-23T00:14:13.358Z,1029.18
2019-02-23T00:15:13.350Z,1029.18
2019-02-23T00:16:13.344Z,1029.25
2019-02-23T00:17:13.338Z,1029.24
2019-02-23T00:18:13.335Z,1029.19
2019-02-23T00:19:24.142Z,1029.22
2019-02-23T00:20:13.318Z,1029.20
2019-02-23T00:21:13.311Z,1029.15
2019-02-23T00:22:13.303Z,1029.19
2019-02-23T00:23:13.296Z,1029.19
2019-02-23T00:24:13.290Z,1029.16
2019-02-23T00:25:13.283Z,1029.16
2019-02-23T00:26:13.277Z,1029.17
2019-02-23T00:27:13.272Z,1029.14
2019-02-23T00:28:13.263Z,1029.14
2019-02-23T00:29:13.257Z,1029.10
2019-02-23T00:30:13.251Z,1029.14
2019-02-23T00:31:13.245Z,1029.15
2019-02-23T00:32:13.236Z,1029.16
2019-02-23T00:33:13.229Z,1029.15
2019-02-23T00:34:13.265Z,1029.17
2019-02-23T00:35:13.216Z,1029.18
2019-02-23T00:36:13.208Z,1029.12
2019-02-23T00:37:13.202Z,1029.18
2019-02-23T00:38:13.195Z,1029.18
2019-02-23T00:39:13.189Z,1029.16
2019-02-23T00:40:13.183Z,1029.18
2019-02-23T00:41:13.174Z,1029.17
2019-02-23T00:42:13.169Z,1029.15
2019-02-23T00:43:13.161Z,1029.17
2019-02-23T00:44:13.154Z,1029.17
2019-02-23T00:45:13.148Z,1029.19
2019-02-23T00:46:13.142Z,1029.22
2019-02-23T00:47:13.135Z,1029.25
2019-02-23T00:48:13.127Z,1029.22
2019-02-23T00:49:13.120Z,1029.20
2019-02-23T00:50:13.114Z,1029.22
2019-02-23T00:51:13.108Z,1029.24
2019-02-23T00:52:13.100Z,1029.24
2019-02-23T00:53:13.095Z,1029.27
2019-02-23T00:54:13.086Z,1029.27
2019-02-23T00:55:13.081Z,1029.24
2019-02-23T00:56:13.073Z,1029.26
2019-02-23T00:57:13.065Z,1029.24
2019-02-23T00:58:13.058Z,1029.21
2019-02-23T00:59:13.053Z,1029.16
2019-02-23T01:00:13.044Z,1029.16
2019-02-23T01:01:13.039Z,1029.12
2019-02-23T01:02:13.035Z,1029.13
2019-02-23T01:03:13.025Z,1029.06
2019-02-23T01:04:13.018Z,1029.09
2019-02-23T01:05:13.011Z,1029.10
2019-02-23T01:06:13.005Z,1029.08
2019-02-23T01:07:12.999Z,1029.10
2019-02-23T01:08:12.990Z,1029.06
2019-02-23T01:09:12.985Z,1029.03
2019-02-23T01:10:12.977Z,1029.07
2019-02-23T01:11:12.970Z,1029.02
2019-02-23T01:12:12.961Z,1029.04
2019-02-23T01:13:12.955Z,1029.00
2019-02-23T01:14:12.950Z,1029.02
2019-02-23T01:15:12.941Z,1028.97
2019-02-23T01:16:12.934Z,1028.97
2019-02-23T01:17:12.927Z,1028.95
2019-02-23T01:18:12.921Z,1029.00
2019-02-23T01:19:12.914Z,1028.94
2019-02-23T01:20:12.906Z,1028.93
2019-02-23T01:21:12.900Z,1028.94
2019-02-23T01:22:12.897Z,1028.94
2019-02-23T01:23:12.887Z,1028.92
2019-02-23T01:24:12.878Z,1028.88
2019-02-23T01:25:12.872Z,1028.87
2019-02-23T01:26:12.865Z,1028.88
2019-02-23T01:27:12.858Z,1028.85
2019-02-23T01:28:12.850Z,1028.82
2019-02-23T01:29:12.846Z,1028.84
2019-02-23T01:30:12.906Z,1028.83
2019-02-23T01:31:12.830Z,1028.83
2019-02-23T01:32:12.822Z,1028.84
2019-02-23T01:33:12.815Z,1028.84
2019-02-23T01:34:12.808Z,1028.82
2019-02-23T01:35:12.802Z,1028.79
2019-02-23T01:36:12.795Z,1028.80
2019-02-23T01:37:12.789Z,1028.77
2019-02-23T01:38:12.781Z,1028.74
2019-02-23T01:39:12.776Z,1028.73
2019-02-23T01:40:12.772Z,1028.73
2019-02-23T01:41:12.761Z,1028.73
2019-02-23T01:42:12.754Z,1028.72
2019-02-23T01:43:12.748Z,1028.74
2019-02-23T01:44:12.738Z,1028.68
2019-02-23T01:45:12.734Z,1028.62
2019-02-23T01:46:12.724Z,1028.62
2019-02-23T01:47:12.717Z,1028.62
2019-02-23T01:48:12.710Z,1028.63
2019-02-23T01:49:12.703Z,1028.65
2019-02-23T01:50:12.697Z,1028.62
2019-02-23T01:51:12.690Z,1028.67
2019-02-23T01:52:12.682Z,1028.64
2019-02-23T01:53:12.676Z,1028.68
2019-02-23T01:54:12.667Z,1028.63
2019-02-23T01:55:12.662Z,1028.60
2019-02-23T01:56:12.656Z,1028.62
2019-02-23T01:57:12.647Z,1028.63
2019-02-23T01:58:12.640Z,1028.59
2019-02-23T01:59:12.634Z,1028.54
2019-02-23T02:00:12.625Z,1028.58
2019-02-23T02:01:12.617Z,1028.64
2019-02-23T02:02:12.611Z,1028.61
2019-02-23T02:03:12.611Z,1028.58
2019-02-23T02:04:12.597Z,1028.56
2019-02-23T02:05:12.588Z,1028.57
2019-02-23T02:06:12.584Z,1028.56
2019-02-23T02:07:12.576Z,1028.50
2019-02-23T02:08:12.568Z,1028.53
2019-02-23T02:09:12.562Z,1028.54
2019-02-23T02:10:12.555Z,1028.54
2019-02-23T02:11:12.547Z,1028.54
2019-02-23T02:12:12.538Z,1028.54
2019-02-23T02:13:12.533Z,1028.49
2019-02-23T02:14:12.524Z,1028.48
2019-02-23T02:15:12.517Z,1028.48
2019-02-23T02:16:12.516Z,1028.50
2019-02-23T02:17:12.509Z,1028.50
2019-02-23T02:18:12.497Z,1028.53
2019-02-23T02:19:12.490Z,1028.53
2019-02-23T02:20:12.482Z,1028.52
2019-02-23T02:21:12.475Z,1028.47
2019-02-23T02:22:12.468Z,1028.45
2019-02-23T02:23:12.462Z,1028.42
2019-02-23T02:24:12.453Z,1028.42
2019-02-23T02:25:12.447Z,1028.45
2019-02-23T02:26:12.439Z,1028.45
2019-02-23T02:27:12.433Z,1028.39
2019-02-23T02:28:12.424Z,1028.41
2019-02-23T02:29:12.418Z,1028.39
2019-02-23T02:30:12.524Z,1028.31
2019-02-23T02:31:12.403Z,1028.28
2019-02-23T02:32:12.396Z,1028.33
2019-02-23T02:33:12.388Z,1028.31
2019-02-23T02:34:12.383Z,1028.33
2019-02-23T02:35:12.376Z,1028.33
2019-02-23T02:36:12.367Z,1028.30
2019-02-23T02:37:12.359Z,1028.25
2019-02-23T02:38:12.353Z,1028.29
2019-02-23T02:39:12.345Z,1028.27
2019-02-23T02:40:12.340Z,1028.32
2019-02-23T02:41:12.331Z,1028.32
2019-02-23T02:42:12.323Z,1028.31
2019-02-23T02:43:12.317Z,1028.32
2019-02-23T02:44:12.307Z,1028.29
2019-02-23T02:45:12.300Z,1028.22
2019-02-23T02:46:12.293Z,1028.26
2019-02-23T02:47:12.288Z,1028.28
2019-02-23T02:48:12.279Z,1028.26
2019-02-23T02:49:12.271Z,1028.28
2019-02-23T02:50:23.803Z,1028.24
2019-02-23T02:51:12.261Z,1028.26
2019-02-23T02:52:12.251Z,1028.23
2019-02-23T02:53:12.242Z,1028.21
2019-02-23T02:54:12.235Z,1028.19
2019-02-23T02:55:12.234Z,1028.12
2019-02-23T02:56:12.219Z,1028.14
2019-02-23T02:57:12.213Z,1028.10
2019-02-23T02:58:12.206Z,1028.06
2019-02-23T02:59:12.199Z,1028.10
2019-02-23T03:00:12.194Z,1028.12
2019-02-23T03:01:12.189Z,1028.10
2019-02-23T03:02:12.179Z,1028.11
2019-02-23T03:03:12.179Z,1028.13
2019-02-23T03:04:12.163Z,1028.12
2019-02-23T03:05:12.156Z,1028.12
2019-02-23T03:06:12.147Z,1028.09
2019-02-23T03:07:12.140Z,1028.16
2019-02-23T03:08:12.134Z,1028.14
2019-02-23T03:09:12.127Z,1028.15
2019-02-23T03:10:12.118Z,1028.17
2019-02-23T03:11:12.110Z,1028.22
2019-02-23T03:12:12.103Z,1028.23
2019-02-23T03:13:12.096Z,1028.21
2019-02-23T03:14:12.183Z,1028.21
2019-02-23T03:15:12.081Z,1028.17
2019-02-23T03:16:12.075Z,1028.20
2019-02-23T03:17:12.068Z,1028.15
2019-02-23T03:18:12.059Z,1028.09
2019-02-23T03:19:12.053Z,1028.09
2019-02-23T03:20:12.043Z,1028.09
2019-02-23T03:21:12.037Z,1028.08
2019-02-23T03:22:12.032Z,1028.08
2019-02-23T03:23:12.023Z,1028.12
2019-02-23T03:24:12.015Z,1028.16
2019-02-23T03:25:12.008Z,1028.14
2019-02-23T03:26:12.002Z,1028.16
2019-02-23T03:27:11.994Z,1028.15
2019-02-23T03:28:11.990Z,1028.18
2019-02-23T03:29:11.984Z,1028.16
2019-02-23T03:30:12.069Z,1028.19
2019-02-23T03:31:11.965Z,1028.23
2019-02-23T03:32:11.959Z,1028.23
2019-02-23T03:33:11.949Z,1028.22
2019-02-23T03:34:11.946Z,1028.24
2019-02-23T03:35:11.939Z,1028.21
2019-02-23T03:36:11.926Z,1028.24
2019-02-23T03:37:11.919Z,1028.23
2019-02-23T03:38:11.921Z,1028.26
2019-02-23T03:39:11.903Z,1028.30
2019-02-23T03:40:11.896Z,1028.28
2019-02-23T03:41:11.887Z,1028.29
2019-02-23T03:42:11.882Z,1028.32
2019-02-23T03:43:11.874Z,1028.32
2019-02-23T03:44:11.865Z,1028.28
2019-02-23T03:45:11.861Z,1028.32
2019-02-23T03:46:11.851Z,1028.35
2019-02-23T03:47:11.844Z,1028.38
2019-02-23T03:48:11.835Z,1028.36
2019-02-23T03:49:11.828Z,1028.33
2019-02-23T03:50:11.820Z,1028.29
2019-02-23T03:51:11.816Z,1028.35
2019-02-23T03:52:11.805Z,1028.34
2019-02-23T03:53:11.803Z,1028.40
2019-02-23T03:54:11.790Z,1028.35
2019-02-23T03:55:11.785Z,1028.34
2019-02-23T03:56:11.777Z,1028.32
2019-02-23T03:57:11.767Z,1028.31
2019-02-23T03:58:11.761Z,1028.26
2019-02-23T03:59:11.753Z,1028.25
2019-02-23T04:00:11.745Z,1028.27
2019-02-23T04:01:11.738Z,1028.26
2019-02-23T04:02:11.730Z,1028.28
2019-02-23T04:03:11.725Z,1028.25
2019-02-23T04:04:11.713Z,1028.29
2019-02-23T04:05:11.707Z,1028.30
2019-02-23T04:06:11.700Z,1028.25
2019-02-23T04:07:11.695Z,1028.24
2019-02-23T04:08:11.685Z,1028.21
2019-02-23T04:09:11.676Z,1028.25
2019-02-23T04:10:11.848Z,1028.22
2019-02-23T04:11:11.660Z,1028.27
2019-02-23T04:12:11.653Z,1028.32
2019-02-23T04:13:11.647Z,1028.31
2019-02-23T04:14:11.640Z,1028.34
2019-02-23T04:15:11.638Z,1028.28
2019-02-23T04:16:11.628Z,1028.29
2019-02-23T04:17:11.616Z,1028.35
2019-02-23T04:18:11.609Z,1028.36
2019-02-23T04:19:11.602Z,1028.37
2019-02-23T04:20:11.592Z,1028.41
2019-02-23T04:21:11.585Z,1028.39
2019-02-23T04:22:11.579Z,1028.39
2019-02-23T04:23:11.573Z,1028.43
2019-02-23T04:24:11.561Z,1028.43
2019-02-23T04:25:11.554Z,1028.48
2019-02-23T04:26:11.547Z,1028.48
2019-02-23T04:27:11.540Z,1028.44
2019-02-23T04:28:11.530Z,1028.48
2019-02-23T04:29:11.525Z,1028.51
2019-02-23T04:30:11.517Z,1028.47
2019-02-23T04:31:11.511Z,1028.49
2019-02-23T04:32:11.502Z,1028.53
2019-02-23T04:33:11.493Z,1028.54
2019-02-23T04:34:11.484Z,1028.57
2019-02-23T04:35:11.479Z,1028.59
2019-02-23T04:36:11.469Z,1028.57
2019-02-23T04:37:11.461Z,1028.53
2019-02-23T04:38:11.454Z,1028.60
2019-02-23T04:39:11.446Z,1028.59
2019-02-23T04:40:11.438Z,1028.65
2019-02-23T04:41:11.433Z,1028.61
2019-02-23T04:42:11.423Z,1028.62
2019-02-23T04:43:11.415Z,1028.60
2019-02-23T04:44:11.406Z,1028.60
2019-02-23T04:45:11.400Z,1028.63
2019-02-23T04:46:11.391Z,1028.65
2019-02-23T04:47:11.387Z,1028.65
2019-02-23T04:48:11.377Z,1028.63
2019-02-23T04:49:11.371Z,1028.61
2019-02-23T04:50:11.365Z,1028.55
2019-02-23T04:51:14.428Z,1028.61
2019-02-23T04:52:11.344Z,1028.59
2019-02-23T04:53:11.335Z,1028.58
2019-02-23T04:54:11.334Z,1028.56
2019-02-23T04:55:11.321Z,1028.54
2019-02-23T04:56:11.313Z,1028.56
2019-02-23T04:57:11.306Z,1028.54
2019-02-23T04:58:11.297Z,1028.55
2019-02-23T04:59:11.291Z,1028.60
2019-02-23T05:00:11.284Z,1028.60
2019-02-23T05:01:11.276Z,1028.62
2019-02-23T05:02:11.267Z,1028.63
2019-02-23T05:03:11.260Z,1028.60
2019-02-23T05:04:11.251Z,1028.62
2019-02-23T05:05:11.243Z,1028.57
2019-02-23T05:06:11.236Z,1028.58
2019-02-23T05:07:11.228Z,1028.58
2019-02-23T05:08:11.218Z,1028.62
2019-02-23T05:09:11.213Z,1028.57
2019-02-23T05:10:11.203Z,1028.61
2019-02-23T05:11:11.197Z,1028.55
2019-02-23T05:12:11.196Z,1028.59
2019-02-23T05:13:11.182Z,1028.60
2019-02-23T05:14:11.174Z,1028.58
2019-02-23T05:15:11.166Z,1028.56
2019-02-23T05:16:11.157Z,1028.56
2019-02-23T05:17:11.149Z,1028.55
2019-02-23T05:18:11.142Z,1028.54
2019-02-23T05:19:11.134Z,1028.56
2019-02-23T05:20:11.127Z,1028.54
2019-02-23T05:21:11.124Z,1028.52
2019-02-23T05:22:11.109Z,1028.53
2019-02-23T05:23:11.101Z,1028.50
2019-02-23T05:24:11.095Z,1028.47
2019-02-23T05:25:11.087Z,1028.53
2019-02-23T05:26:11.079Z,1028.53
2019-02-23T05:27:11.146Z,1028.54
2019-02-23T05:28:11.062Z,1028.53
2019-02-23T05:29:11.054Z,1028.54
2019-02-23T05:30:11.048Z,1028.61
2019-02-23T05:31:11.040Z,1028.58
2019-02-23T05:32:11.031Z,1028.58
2019-02-23T05:33:11.024Z,1028.55
2019-02-23T05:34:11.017Z,1028.61
2019-02-23T05:35:11.015Z,1028.63
2019-02-23T05:36:10.999Z,1028.65
2019-02-23T05:37:10.992Z,1028.67
2019-02-23T05:38:10.984Z,1028.66
2019-02-23T05:39:10.977Z,1028.64
2019-02-23T05:40:10.971Z,1028.67
2019-02-23T05:41:10.962Z,1028.68
2019-02-23T05:42:10.956Z,1028.70
2019-02-23T05:43:10.949Z,1028.71
2019-02-23T05:44:10.940Z,1028.72
2019-02-23T05:45:10.932Z,1028.76
2019-02-23T05:46:10.922Z,1028.77
2019-02-23T05:47:10.915Z,1028.77
2019-02-23T05:48:10.907Z,1028.82
2019-02-23T05:49:10.898Z,1028.74
2019-02-23T05:50:10.891Z,1028.78
2019-02-23T05:51:10.882Z,1028.80
2019-02-23T05:52:10.875Z,1028.83
2019-02-23T05:53:10.869Z,1028.82
2019-02-23T05:54:10.860Z,1028.81
2019-02-23T05:55:10.856Z,1028.83
2019-02-23T05:56:15.172Z,1028.89
2019-02-23T05:57:10.835Z,1028.90
2019-02-23T05:58:10.831Z,1028.88
2019-02-23T05:59:10.820Z,1028.88
2019-02-23T06:00:10.813Z,1028.88
2019-02-23T06:01:10.805Z,1028.95
2019-02-23T06:02:10.798Z,1028.87
2019-02-23T06:03:10.789Z,1028.89
2019-02-23T06:04:10.779Z,1028.89
2019-02-23T06:05:10.771Z,1028.94
2019-02-23T06:06:10.766Z,1028.99
2019-02-23T06:07:10.757Z,1028.94
2019-02-23T06:08:10.750Z,1028.96
2019-02-23T06:09:10.742Z,1028.94
2019-02-23T06:10:10.735Z,1028.99
2019-02-23T06:11:10.726Z,1028.94
2019-02-23T06:12:10.720Z,1028.94
2019-02-23T06:13:10.709Z,1028.93
2019-02-23T06:14:10.702Z,1028.93
2019-02-23T06:15:10.697Z,1028.88
2019-02-23T06:16:10.687Z,1028.90
2019-02-23T06:17:10.680Z,1028.91
2019-02-23T06:18:10.671Z,1028.91
2019-02-23T06:19:10.664Z,1028.90
2019-02-23T06:20:10.657Z,1028.90
2019-02-23T06:21:10.646Z,1028.91
2019-02-23T06:22:10.637Z,1028.93
2019-02-23T06:23:10.633Z,1028.94
2019-02-23T06:24:10.622Z,1028.93
2019-02-23T06:25:10.616Z,1028.95
2019-02-23T06:26:10.608Z,1028.95
2019-02-23T06:27:10.599Z,1028.97
2019-02-23T06:28:10.595Z,1028.96
2019-02-23T06:29:10.583Z,1028.93
2019-02-23T06:30:10.575Z,1028.95
2019-02-23T06:31:10.566Z,1028.95
2019-02-23T06:32:10.560Z,1028.95
2019-02-23T06:33:10.552Z,1028.98
2019-02-23T06:34:16.148Z,1028.97
2019-02-23T06:35:10.538Z,1029.01
2019-02-23T06:36:10.528Z,1029.01
2019-02-23T06:37:10.526Z,1028.98
2019-02-23T06:38:10.511Z,1028.97
2019-02-23T06:39:10.501Z,1028.99
2019-02-23T06:40:10.503Z,1028.96
2019-02-23T06:41:10.485Z,1028.98
2019-02-23T06:42:10.479Z,1028.95
2019-02-23T06:43:10.471Z,1029.00
2019-02-23T06:44:10.461Z,1029.01
2019-02-23T06:45:10.458Z,1028.98
2019-02-23T06:46:10.445Z,1029.05
2019-02-23T06:47:10.440Z,1029.03
2019-02-23T06:48:10.437Z,1029.04
2019-02-23T06:49:10.421Z,1029.06
2019-02-23T06:50:10.415Z,1029.05
2019-02-23T06:51:10.408Z,1029.05
2019-02-23T06:52:10.396Z,1029.06
2019-02-23T06:53:10.392Z,1029.02
2019-02-23T06:54:10.385Z,1029.03
2019-02-23T06:55:10.373Z,1029.02
2019-02-23T06:56:10.363Z,1029.03
2019-02-23T06:57:10.355Z,1028.98
2019-02-23T06:58:10.349Z,1029.05
2019-02-23T06:59:10.344Z,1029.04
2019-02-23T07:00:10.332Z,1029.04
2019-02-23T07:01:10.325Z,1029.00
2019-02-23T07:02:10.316Z,1028.99
2019-02-23T07:03:10.309Z,1029.00
2019-02-23T07:04:10.299Z,1028.99
2019-02-23T07:05:10.292Z,1028.99
2019-02-23T07:06:10.285Z,1028.99
2019-02-23T07:07:10.277Z,1028.99
2019-02-23T07:08:10.267Z,1029.04
2019-02-23T07:09:10.261Z,1029.02
2019-02-23T07:10:10.252Z,1029.01
2019-02-23T07:11:10.243Z,1028.98
2019-02-23T07:12:10.235Z,1029.02
2019-02-23T07:13:10.228Z,1029.01
2019-02-23T07:14:10.220Z,1029.04
2019-02-23T07:15:10.211Z,1029.07
2019-02-23T07:16:10.206Z,1029.02
2019-02-23T07:17:10.193Z,1029.04
2019-02-23T07:18:10.185Z,1029.04
2019-02-23T07:19:10.177Z,1029.00
2019-02-23T07:20:10.170Z,1029.01
2019-02-23T07:21:10.161Z,1029.00
2019-02-23T07:22:15.521Z,1029.08
2019-02-23T07:23:10.146Z,1029.02
2019-02-23T07:24:10.136Z,1029.10
2019-02-23T07:25:10.130Z,1029.07
2019-02-23T07:26:10.120Z,1029.09
2019-02-23T07:27:10.112Z,1029.04
2019-02-23T07:28:10.952Z,1029.06
2019-02-23T07:29:10.099Z,1029.09
2019-02-23T07:30:10.087Z,1029.03
2019-02-23T07:31:10.081Z,1029.06
2019-02-23T07:32:10.071Z,1029.08
2019-02-23T07:33:10.063Z,1029.06
2019-02-23T07:34:10.055Z,1029.04
2019-02-23T07:35:10.051Z,1029.05
2019-02-23T07:36:10.037Z,1029.05
2019-02-23T07:37:10.033Z,1029.06
2019-02-23T07:38:10.022Z,1029.04
2019-02-23T07:39:10.019Z,1029.03
2019-02-23T07:40:10.006Z,1029.14
2019-02-23T07:41:09.999Z,1029.14
2019-02-23T07:42:09.991Z,1029.15
2019-02-23T07:43:09.983Z,1029.22
2019-02-23T07:44:09.974Z,1029.22
2019-02-23T07:45:09.966Z,1029.25
2019-02-23T07:46:09.964Z,1029.31
2019-02-23T07:47:09.950Z,1029.28
2019-02-23T07:48:09.940Z,1029.28
2019-02-23T07:49:09.933Z,1029.34
2019-02-23T07:50:09.925Z,1029.30
2019-02-23T07:51:09.917Z,1029.32
2019-02-23T07:52:09.908Z,1029.32
2019-02-23T07:53:09.901Z,1029.30
2019-02-23T07:54:09.892Z,1029.32
2019-02-23T07:55:09.885Z,1029.29
2019-02-23T07:56:09.875Z,1029.26
2019-02-23T07:57:09.866Z,1029.29
2019-02-23T07:58:09.860Z,1029.33
2019-02-23T07:59:09.851Z,1029.36
2019-02-23T08:00:09.844Z,1029.34
2019-02-23T08:01:09.836Z,1029.38
2019-02-23T08:02:09.828Z,1029.38
2019-02-23T08:03:09.822Z,1029.34
2019-02-23T08:04:09.812Z,1029.36
2019-02-23T08:05:09.803Z,1029.33
2019-02-23T08:06:09.794Z,1029.38
2019-02-23T08:07:09.787Z,1029.31
2019-02-23T08:08:09.779Z,1029.33
2019-02-23T08:09:09.771Z,1029.34
2019-02-23T08:10:09.765Z,1029.32
2019-02-23T08:11:09.755Z,1029.30
2019-02-23T08:12:09.746Z,1029.33
2019-02-23T08:13:09.737Z,1029.31
2019-02-23T08:14:09.730Z,1029.30
2019-02-23T08:15:09.725Z,1029.36
2019-02-23T08:16:09.714Z,1029.37
2019-02-23T08:17:09.708Z,1029.36
2019-02-23T08:18:09.700Z,1029.35
2019-02-23T08:19:09.692Z,1029.34
2019-02-23T08:20:09.684Z,1029.35
2019-02-23T08:21:09.692Z,1029.34
2019-02-23T08:22:09.669Z,1029.33
2019-02-23T08:23:09.660Z,1029.31
2019-02-23T08:24:09.651Z,1029.27
2019-02-23T08:25:09.643Z,1029.30
2019-02-23T08:26:09.636Z,1029.25
2019-02-23T08:27:09.628Z,1029.18
2019-02-23T08:28:09.621Z,1029.17
2019-02-23T08:29:09.613Z,1029.18
2019-02-23T08:30:09.606Z,1029.17
2019-02-23T08:31:09.598Z,1029.21
2019-02-23T08:32:09.589Z,1029.24
2019-02-23T08:33:09.581Z,1029.27
2019-02-23T08:34:09.574Z,1029.29
2019-02-23T08:35:09.566Z,1029.30
2019-02-23T08:36:09.560Z,1029.32
2019-02-23T08:37:09.552Z,1029.32
2019-02-23T08:38:09.543Z,1029.27
2019-02-23T08:39:09.537Z,1029.23
2019-02-23T08:40:09.529Z,1029.27
2019-02-23T08:41:09.520Z,1029.28
2019-02-23T08:42:09.514Z,1029.30
2019-02-23T08:43:09.507Z,1029.26
2019-02-23T08:44:09.497Z,1029.25
2019-02-23T08:45:09.492Z,1029.26
2019-02-23T08:46:09.483Z,1029.27
2019-02-23T08:47:09.476Z,1029.29
2019-02-23T08:48:09.468Z,1029.31
2019-02-23T08:49:09.460Z,1029.33
2019-02-23T08:50:09.454Z,1029.34
2019-02-23T08:51:09.456Z,1029.33
2019-02-23T08:52:09.438Z,1029.33
2019-02-23T08:53:09.431Z,1029.33
2019-02-23T08:54:09.424Z,1029.38
2019-02-23T08:55:09.418Z,1029.39
2019-02-23T08:56:09.412Z,1029.37
2019-02-23T08:57:09.401Z,1029.44
2019-02-23T08:58:09.394Z,1029.42
2019-02-23T08:59:09.389Z,1029.36
2019-02-23T09:00:09.379Z,1029.35
2019-02-23T09:01:09.375Z,1029.37
2019-02-23T09:02:09.366Z,1029.35
2019-02-23T09:03:09.358Z,1029.30
2019-02-23T09:04:09.350Z,1029.29
2019-02-23T09:05:09.343Z,1029.26
2019-02-23T09:06:09.336Z,1029.27
2019-02-23T09:07:09.330Z,1029.24
2019-02-23T09:08:09.324Z,1029.25
2019-02-23T09:09:09.322Z,1029.31
2019-02-23T09:10:09.310Z,1029.24
2019-02-23T09:11:09.303Z,1029.27
2019-02-23T09:12:09.295Z,1029.24
2019-02-23T09:13:09.289Z,1029.26
2019-02-23T09:14:09.281Z,1029.20
2019-02-23T09:15:09.276Z,1029.21
2019-02-23T09:16:09.268Z,1029.20
2019-02-23T09:17:09.261Z,1029.23
2019-02-23T09:18:09.253Z,1029.27
2019-02-23T09:19:09.245Z,1029.32
2019-02-23T09:20:09.238Z,1029.28
2019-02-23T09:21:09.232Z,1029.30
2019-02-23T09:22:09.224Z,1029.29
2019-02-23T09:23:09.219Z,1029.29
2019-02-23T09:24:09.211Z,1029.25
2019-02-23T09:25:09.204Z,1029.25
2019-02-23T09:26:09.282Z,1029.26
2019-02-23T09:27:09.263Z,1029.24
2019-02-23T09:28:09.184Z,1029.31
2019-02-23T09:29:09.177Z,1029.30
2019-02-23T09:30:09.168Z,1029.30
2019-02-23T09:31:09.163Z,1029.28
2019-02-23T09:32:09.156Z,1029.26
2019-02-23T09:33:09.152Z,1029.31
2019-02-23T09:34:09.144Z,1029.39
2019-02-23T09:35:09.151Z,1029.38
2019-02-23T09:36:09.131Z,1029.36
2019-02-23T09:37:09.122Z,1029.33
2019-02-23T09:38:09.116Z,1029.34
2019-02-23T09:39:09.109Z,1029.40
2019-02-23T09:40:09.103Z,1029.38
2019-02-23T09:41:09.095Z,1029.40
2019-02-23T09:42:09.091Z,1029.39
2019-02-23T09:43:09.084Z,1029.41
2019-02-23T09:44:09.074Z,1029.43
2019-02-23T09:45:09.069Z,1029.46
2019-02-23T09:46:09.064Z,1029.43
2019-02-23T09:47:09.056Z,1029.41
2019-02-23T09:48:09.055Z,1029.41
2019-02-23T09:49:09.044Z,1029.39
2019-02-23T09:50:09.039Z,1029.43
2019-02-23T09:51:09.032Z,1029.44
2019-02-23T09:52:09.026Z,1029.48
2019-02-23T09:53:11.514Z,1029.56
2019-02-23T09:54:09.011Z,1029.75
2019-02-23T09:55:09.006Z,1029.91
2019-02-23T09:56:09.000Z,1029.96
2019-02-23T09:57:08.997Z,1029.89
2019-02-23T09:58:08.989Z,1029.94
2019-02-23T09:59:08.984Z,1029.91
2019-02-23T10:00:08.978Z,1029.91
2019-02-23T10:01:08.972Z,1029.86
2019-02-23T10:02:08.967Z,1029.96
2019-02-23T10:03:08.963Z,1029.98
2019-02-23T10:04:08.957Z,1029.97
2019-02-23T10:05:08.955Z,1029.91
2019-02-23T10:06:08.952Z,1029.92
2019-02-23T10:07:08.950Z,1029.90
2019-02-23T10:08:08.957Z,1029.90
2019-02-23T10:09:08.941Z,1029.93
2019-02-23T10:10:08.938Z,1029.97
2019-02-23T10:11:08.933Z,1030.00
2019-02-23T10:12:08.933Z,1029.99
2019-02-23T10:13:08.928Z,1029.96
2019-02-23T10:14:08.926Z,1030.03
2019-02-23T10:15:08.924Z,1030.02
2019-02-23T10:16:08.923Z,1030.06
2019-02-23T10:17:09.399Z,1030.05
2019-02-23T10:18:08.919Z,1030.06
2019-02-23T10:19:08.917Z,1030.02
2019-02-23T10:20:08.916Z,1029.99
2019-02-23T10:21:08.916Z,1029.91
2019-02-23T10:22:08.914Z,1029.96
2019-02-23T10:23:08.913Z,1029.95
2019-02-23T10:24:08.911Z,1029.92
2019-02-23T10:25:08.914Z,1029.92
2019-02-23T10:26:08.910Z,1029.86
2019-02-23T10:27:08.911Z,1029.84
2019-02-23T10:28:08.909Z,1029.87
2019-02-23T10:29:08.909Z,1029.75
2019-02-23T10:30:08.909Z,1029.72
2019-02-23T10:31:08.910Z,1029.72
2019-02-23T10:32:08.908Z,1029.67
2019-02-23T10:33:08.915Z,1029.64
2019-02-23T10:34:08.909Z,1029.65
2019-02-23T10:35:08.912Z,1029.51
2019-02-23T10:36:08.910Z,1029.44
2019-02-23T10:37:08.911Z,1029.40
2019-02-23T10:38:08.913Z,1029.36
2019-02-23T10:39:08.913Z,1029.32
2019-02-23T10:40:08.912Z,1029.36
2019-02-23T10:41:08.912Z,1029.29
2019-02-23T10:42:08.912Z,1029.20
2019-02-23T10:43:08.913Z,1029.29
2019-02-23T10:44:08.913Z,1029.28
2019-02-23T10:45:08.912Z,1029.27
2019-02-23T10:46:08.910Z,1029.33
2019-02-23T10:47:08.914Z,1029.39
2019-02-23T10:48:08.913Z,1029.33
2019-02-23T10:49:08.911Z,1029.30
2019-02-23T10:50:08.910Z,1029.24
2019-02-23T10:51:08.921Z,1029.17
2019-02-23T10:52:08.908Z,1029.11
2019-02-23T10:53:08.909Z,1029.08
2019-02-23T10:54:08.914Z,1029.05
2019-02-23T10:55:08.908Z,1029.05
2019-02-23T10:56:08.908Z,1029.00
2019-02-23T10:57:08.906Z,1028.99
2019-02-23T10:58:08.905Z,1028.95
2019-02-23T10:59:08.905Z,1028.97
2019-02-23T11:00:08.902Z,1028.96
2019-02-23T11:01:08.905Z,1028.95
2019-02-23T11:02:08.938Z,1029.05
2019-02-23T11:03:08.901Z,1028.97
2019-02-23T11:04:08.901Z,1028.99
2019-02-23T11:05:08.898Z,1028.97
2019-02-23T11:06:08.976Z,1028.87
2019-02-23T11:07:08.897Z,1028.90
2019-02-23T11:08:08.896Z,1028.90
2019-02-23T11:09:08.893Z,1028.85
2019-02-23T11:10:08.891Z,1028.89
2019-02-23T11:11:08.891Z,1028.95
2019-02-23T11:12:08.889Z,1028.96
2019-02-23T11:13:08.888Z,1029.08
2019-02-23T11:14:08.886Z,1029.12
2019-02-23T11:15:08.884Z,1029.10
2019-02-23T11:16:08.882Z,1029.02
2019-02-23T11:17:08.881Z,1029.02
2019-02-23T11:18:08.879Z,1028.96
2019-02-23T11:19:08.877Z,1028.88
2019-02-23T11:20:08.876Z,1028.86
2019-02-23T11:21:08.875Z,1028.86
2019-02-23T11:22:08.875Z,1028.86
2019-02-23T11:23:08.873Z,1028.91
2019-02-23T11:24:08.870Z,1028.93
2019-02-23T11:25:08.867Z,1028.85
2019-02-23T11:26:08.866Z,1028.79
2019-02-23T11:27:08.868Z,1028.75
2019-02-23T11:28:08.861Z,1028.77
2019-02-23T11:29:08.861Z,1028.86
2019-02-23T11:30:08.860Z,1028.89
2019-02-23T11:31:08.857Z,1028.93
2019-02-23T11:32:08.867Z,1028.92
2019-02-23T11:33:08.852Z,1028.91
2019-02-23T11:34:08.852Z,1028.97
2019-02-23T11:35:08.849Z,1028.97
2019-02-23T11:36:08.846Z,1028.83
2019-02-23T11:37:08.844Z,1028.74
2019-02-23T11:38:08.843Z,1028.68
2019-02-23T11:39:08.840Z,1028.67
2019-02-23T11:40:08.844Z,1028.61
2019-02-23T11:41:08.835Z,1028.59
2019-02-23T11:42:08.835Z,1028.76
2019-02-23T11:43:08.837Z,1028.75
2019-02-23T11:44:08.832Z,1028.77
2019-02-23T11:45:08.825Z,1028.83
2019-02-23T11:46:08.823Z,1028.82
2019-02-23T11:47:08.820Z,1028.75
2019-02-23T11:48:08.818Z,1028.64
2019-02-23T11:49:08.816Z,1028.60
2019-02-23T11:50:08.812Z,1028.58
2019-02-23T11:51:08.813Z,1028.62
2019-02-23T11:52:08.806Z,1028.65
2019-02-23T11:53:08.806Z,1028.69
2019-02-23T11:54:08.804Z,1028.72
2019-02-23T11:55:08.803Z,1028.69
2019-02-23T11:56:08.797Z,1028.60
2019-02-23T11:57:08.795Z,1028.53
2019-02-23T11:58:08.792Z,1028.53
2019-02-23T11:59:08.788Z,1028.51
2019-02-23T12:00:08.789Z,1028.47
2019-02-23T12:01:08.783Z,1028.44
2019-02-23T12:02:08.782Z,1028.43
2019-02-23T12:03:08.778Z,1028.52
2019-02-23T12:04:08.773Z,1028.64
2019-02-23T12:05:08.774Z,1028.61